createdAt,value
2019-05-18T00:01:12.991Z,39.48
2019-05-18T00:03:44.948Z,40.08
2019-05-18T00:06:16.309Z,42.88
2019-05-18T00:08:48.092Z,38.23
2019-05-18T00:11:19.844Z,37.15
2019-05-18T00:13:51.893Z,45.20
2019-05-18T00:16:23.573Z,39.95
2019-05-18T00:18:55.436Z,42.05
2019-05-18T00:21:27.303Z,37.55
2019-05-18T00:23:58.871Z,46.63
2019-05-18T00:26:30.398Z,39.08
2019-05-18T00:29:02.276Z,40.23
2019-05-18T00:31:33.526Z,40.23
2019-05-18T00:34:05.093Z,37.15
2019-05-18T00:36:36.675Z,35.10
2019-05-18T00:39:09.509Z,30.60
2019-05-18T00:41:41.268Z,43.13
2019-05-18T00:44:12.901Z,27.85
2019-05-18T00:46:44.494Z,34.95
2019-05-18T00:49:16.277Z,29.23
2019-05-18T00:51:48.111Z,31.93
2019-05-18T00:54:19.726Z,28.60
2019-05-18T00:56:51.333Z,30.82
2019-05-18T00:59:22.908Z,34.43
2019-05-18T01:01:54.650Z,30.72
2019-05-18T01:04:26.027Z,33.73
2019-05-18T01:06:57.587Z,32.63
2019-05-18T01:09:29.331Z,27.73
2019-05-18T01:12:00.706Z,33.95
2019-05-18T01:14:32.286Z,33.02
2019-05-18T01:17:04.007Z,30.08
2019-05-18T01:19:35.864Z,33.35
2019-05-18T01:22:07.306Z,31.62
2019-05-18T01:24:41.586Z,34.85
2019-05-18T01:27:13.218Z,30.20
2019-05-18T01:29:45.064Z,32.38
2019-05-18T01:32:16.575Z,29.27
2019-05-18T01:34:48.203Z,36.08
2019-05-18T01:37:19.735Z,47.53
2019-05-18T01:39:51.363Z,39.90
2019-05-18T01:42:22.850Z,28.47
2019-05-18T01:44:54.169Z,39.53
2019-05-18T01:47:25.810Z,46.45
2019-05-18T01:49:57.747Z,28.50
2019-05-18T01:52:29.356Z,45.65
2019-05-18T01:55:01.075Z,30.43
2019-05-18T01:57:32.624Z,28.35
2019-05-18T02:00:04.269Z,28.52
2019-05-18T02:02:36.199Z,31.25
2019-05-18T02:05:09.110Z,34.58
2019-05-18T02:07:40.968Z,32.42
2019-05-18T02:10:12.388Z,29.80
2019-05-18T02:12:43.981Z,32.28
2019-05-18T02:15:15.936Z,28.62
2019-05-18T02:17:47.458Z,22.98
2019-05-18T02:20:18.940Z,32.38
2019-05-18T02:22:50.910Z,23.07
2019-05-18T02:25:22.273Z,30.20
2019-05-18T02:27:54.275Z,28.00
2019-05-18T02:30:26.196Z,24.12
2019-05-18T02:32:57.825Z,21.05
2019-05-18T02:35:29.225Z,26.70
2019-05-18T02:38:17.657Z,22.20
2019-05-18T02:40:49.228Z,20.60
2019-05-18T02:43:20.923Z,23.67
2019-05-18T02:45:52.416Z,19.92
2019-05-18T02:48:23.793Z,23.47
2019-05-18T02:50:55.586Z,20.95
2019-05-18T02:53:27.224Z,25.97
2019-05-18T02:55:58.664Z,27.52
2019-05-18T02:58:30.328Z,20.92
2019-05-18T03:01:01.966Z,36.03
2019-05-18T03:03:33.553Z,30.12
2019-05-18T03:06:05.279Z,22.05
2019-05-18T03:08:36.797Z,18.42
2019-05-18T03:11:10.001Z,26.60
2019-05-18T03:13:41.716Z,17.42
2019-05-18T03:16:13.379Z,26.52
2019-05-18T03:18:45.137Z,21.62
2019-05-18T03:21:16.490Z,21.77
2019-05-18T03:23:47.975Z,27.05
2019-05-18T03:26:19.463Z,34.18
2019-05-18T03:28:51.438Z,26.27
2019-05-18T03:31:22.938Z,25.02
2019-05-18T03:33:54.498Z,23.35
2019-05-18T03:36:26.229Z,19.75
2019-05-18T03:38:57.807Z,24.85
2019-05-18T03:41:29.374Z,20.32
2019-05-18T03:44:01.239Z,28.35
2019-05-18T03:46:32.966Z,22.70
2019-05-18T03:49:04.505Z,23.05
2019-05-18T03:51:36.314Z,21.37
2019-05-18T03:54:07.945Z,25.50
2019-05-18T03:56:39.341Z,22.70
2019-05-18T03:59:11.351Z,24.70
2019-05-18T04:01:42.890Z,25.72
2019-05-18T04:04:18.329Z,19.23
2019-05-18T04:06:47.795Z,24.87
2019-05-18T04:09:19.436Z,25.30
2019-05-18T04:11:50.743Z,22.35
2019-05-18T04:14:22.698Z,22.62
2019-05-18T04:16:54.522Z,21.48
2019-05-18T04:19:44.331Z,24.63
2019-05-18T04:21:59.264Z,24.00
2019-05-18T04:24:31.210Z,18.67
2019-05-18T04:27:03.074Z,19.20
2019-05-18T04:29:37.189Z,15.43
2019-05-18T04:32:08.847Z,32.50
2019-05-18T04:34:41.049Z,26.75
2019-05-18T04:37:12.518Z,24.75
2019-05-18T04:39:44.355Z,21.15
2019-05-18T04:42:16.138Z,24.12
2019-05-18T04:44:47.613Z,22.85
2019-05-18T04:47:19.334Z,19.70
2019-05-18T04:50:04.634Z,26.35
2019-05-18T04:52:24.268Z,24.95
2019-05-18T04:54:55.880Z,18.90
2019-05-18T04:57:27.513Z,18.02
2019-05-18T04:59:59.166Z,23.27
2019-05-18T05:02:30.445Z,19.92
2019-05-18T05:05:02.087Z,21.65
2019-05-18T05:07:34.015Z,23.42
2019-05-18T05:10:06.604Z,22.05
2019-05-18T05:12:38.361Z,25.48
2019-05-18T05:15:09.810Z,20.40
2019-05-18T05:17:41.586Z,26.15
2019-05-18T05:20:19.571Z,15.78
2019-05-18T05:22:46.360Z,17.20
2019-05-18T05:25:17.997Z,19.60
2019-05-18T05:27:49.964Z,22.20
2019-05-18T05:30:47.817Z,19.23
2019-05-18T05:33:19.810Z,24.67
2019-05-18T05:35:51.303Z,16.48
2019-05-18T05:38:23.143Z,23.25
2019-05-18T05:40:54.839Z,25.05
2019-05-18T05:43:27.272Z,20.85
2019-05-18T05:45:58.590Z,23.30
2019-05-18T05:48:30.468Z,22.32
2019-05-18T05:51:02.100Z,23.32
2019-05-18T05:53:33.526Z,16.67
2019-05-18T05:56:05.268Z,28.65
2019-05-18T05:58:36.794Z,25.25
2019-05-18T06:01:08.521Z,16.70
2019-05-18T06:03:40.574Z,18.70
2019-05-18T06:06:11.987Z,14.73
2019-05-18T06:08:43.791Z,21.52
2019-05-18T06:11:15.329Z,18.37
2019-05-18T06:13:47.938Z,39.75
2019-05-18T06:16:19.729Z,23.38
2019-05-18T06:18:51.525Z,42.80
2019-05-18T06:21:22.903Z,22.62
2019-05-18T06:23:54.258Z,28.00
2019-05-18T06:26:25.945Z,36.63
2019-05-18T06:28:57.374Z,36.25
2019-05-18T06:31:29.156Z,23.50
2019-05-18T06:34:01.210Z,22.35
2019-05-18T06:36:33.038Z,22.55
2019-05-18T06:39:05.762Z,28.17
2019-05-18T06:41:37.322Z,27.55
2019-05-18T06:44:09.032Z,24.18
2019-05-18T06:46:40.870Z,24.37
2019-05-18T06:49:13.218Z,19.12
2019-05-18T06:51:45.073Z,18.70
2019-05-18T06:54:16.841Z,26.35
2019-05-18T06:56:48.699Z,31.82
2019-05-18T06:59:20.424Z,24.35
2019-05-18T07:01:51.994Z,29.75
2019-05-18T07:04:23.325Z,16.73
2019-05-18T07:06:55.193Z,26.52
2019-05-18T07:09:26.861Z,17.80
2019-05-18T07:11:58.597Z,24.23
2019-05-18T07:14:30.210Z,26.15
2019-05-18T07:17:01.962Z,24.32
2019-05-18T07:19:33.479Z,28.32
2019-05-18T07:22:04.975Z,25.82
2019-05-18T07:24:36.563Z,21.95
2019-05-18T07:27:08.054Z,22.90
2019-05-18T07:29:39.982Z,18.48
2019-05-18T07:32:11.813Z,20.48
2019-05-18T07:34:43.488Z,22.55
2019-05-18T07:37:17.340Z,20.92
2019-05-18T07:39:49.108Z,25.12
2019-05-18T07:42:20.664Z,20.05
2019-05-18T07:44:52.469Z,25.37
2019-05-18T07:47:24.321Z,26.62
2019-05-18T07:49:55.994Z,23.42
2019-05-18T07:52:27.627Z,20.95
2019-05-18T07:54:59.121Z,23.65
2019-05-18T07:57:30.867Z,23.42
2019-05-18T08:00:02.385Z,23.05
2019-05-18T08:02:33.810Z,18.30
2019-05-18T08:05:05.555Z,20.57
2019-05-18T08:07:37.050Z,18.07
2019-05-18T08:10:09.279Z,27.67
2019-05-18T08:12:40.668Z,17.55
2019-05-18T08:15:12.301Z,17.98
2019-05-18T08:17:44.369Z,17.25
2019-05-18T08:20:15.835Z,19.85
2019-05-18T08:22:47.262Z,17.60
2019-05-18T08:25:19.046Z,18.73
2019-05-18T08:27:50.495Z,18.77
2019-05-18T08:30:21.954Z,21.73
2019-05-18T08:32:53.804Z,21.77
2019-05-18T08:35:27.088Z,19.95
2019-05-18T08:37:58.278Z,28.23
2019-05-18T08:40:30.365Z,23.40
2019-05-18T08:43:02.375Z,28.00
2019-05-18T08:45:34.129Z,20.72
2019-05-18T08:48:05.817Z,22.80
2019-05-18T08:50:37.360Z,17.60
2019-05-18T08:53:08.869Z,15.43
2019-05-18T08:55:40.924Z,23.80
2019-05-18T08:58:12.523Z,18.55
2019-05-18T09:00:44.132Z,23.95
2019-05-18T09:03:16.265Z,20.30
2019-05-18T09:05:47.918Z,17.92
2019-05-18T09:08:19.321Z,20.57
2019-05-18T09:10:51.233Z,20.95
2019-05-18T09:13:22.890Z,31.25
2019-05-18T09:15:54.718Z,28.52
2019-05-18T09:18:26.395Z,21.55
2019-05-18T09:20:58.216Z,30.50
2019-05-18T09:23:30.146Z,27.93
2019-05-18T09:26:01.908Z,23.55
2019-05-18T09:28:33.685Z,28.45
2019-05-18T09:31:05.283Z,23.60
2019-05-18T09:33:37.147Z,23.25
2019-05-18T09:36:08.794Z,26.90
2019-05-18T09:38:40.291Z,25.50
2019-05-18T09:41:14.756Z,20.57
2019-05-18T09:43:49.314Z,22.15
2019-05-18T09:46:21.031Z,19.10
2019-05-18T09:48:52.542Z,24.27
2019-05-18T09:51:24.370Z,34.78
2019-05-18T09:53:55.610Z,21.75
2019-05-18T09:56:27.339Z,19.10
2019-05-18T09:58:59.082Z,21.27
2019-05-18T10:01:30.683Z,19.55
2019-05-18T10:04:02.236Z,19.87
2019-05-18T10:06:34.201Z,19.82
2019-05-18T10:09:07.278Z,16.17
2019-05-18T10:11:39.079Z,22.58
2019-05-18T10:14:10.734Z,24.18
2019-05-18T10:16:42.777Z,18.00
2019-05-18T10:19:14.415Z,16.62
2019-05-18T10:21:46.374Z,16.32
2019-05-18T10:24:18.834Z,18.87
2019-05-18T10:26:50.740Z,18.02
2019-05-18T10:29:22.180Z,19.77
2019-05-18T10:31:54.760Z,21.75
2019-05-18T10:34:26.779Z,15.53
2019-05-18T10:36:58.207Z,14.30
2019-05-18T10:39:30.091Z,24.32
2019-05-18T10:42:01.683Z,24.37
2019-05-18T10:44:35.924Z,16.40
2019-05-18T10:47:07.822Z,19.52
2019-05-18T10:49:39.288Z,18.25
2019-05-18T10:52:11.364Z,21.40
2019-05-18T10:54:42.994Z,19.20
2019-05-18T10:57:15.039Z,18.42
2019-05-18T10:59:46.823Z,21.10
2019-05-18T11:02:18.879Z,30.27
2019-05-18T11:04:50.337Z,35.43
2019-05-18T11:07:22.192Z,20.23
2019-05-18T11:09:53.882Z,23.30
2019-05-18T11:12:25.726Z,21.85
2019-05-18T11:14:57.339Z,23.05
2019-05-18T11:17:29.325Z,22.65
2019-05-18T11:20:00.905Z,15.90
2019-05-18T11:22:32.575Z,24.27
2019-05-18T11:25:04.414Z,28.57
2019-05-18T11:27:36.076Z,26.90
2019-05-18T11:30:49.770Z,26.25
2019-05-18T11:33:21.544Z,22.95
2019-05-18T11:35:53.610Z,31.35
2019-05-18T11:38:25.108Z,19.45
2019-05-18T11:40:56.771Z,20.97
2019-05-18T11:43:28.703Z,25.10
2019-05-18T11:46:00.567Z,24.05
2019-05-18T11:48:32.515Z,18.73
2019-05-18T11:51:04.292Z,25.27
2019-05-18T11:53:36.098Z,19.27
2019-05-18T11:56:07.743Z,22.10
2019-05-18T11:58:39.580Z,35.10
2019-05-18T12:01:11.208Z,23.27
2019-05-18T12:03:42.621Z,24.12
2019-05-18T12:06:14.378Z,36.75
2019-05-18T12:08:46.035Z,24.10
2019-05-18T12:11:17.954Z,23.07
2019-05-18T12:13:49.739Z,26.35
2019-05-18T12:16:21.536Z,34.23
2019-05-18T12:18:53.195Z,21.40
2019-05-18T12:21:25.018Z,28.62
2019-05-18T12:23:56.568Z,25.02
2019-05-18T12:26:28.251Z,30.02
2019-05-18T12:29:00.140Z,44.45
2019-05-18T12:31:31.787Z,24.37
2019-05-18T12:34:03.742Z,19.42
2019-05-18T12:36:35.449Z,22.37
2019-05-18T12:39:08.376Z,29.30
2019-05-18T12:41:40.131Z,25.12
2019-05-18T12:44:11.761Z,21.85
2019-05-18T12:46:43.733Z,25.82
2019-05-18T12:49:15.260Z,30.95
2019-05-18T12:51:46.868Z,25.60
2019-05-18T12:54:29.329Z,26.57
2019-05-18T12:56:51.750Z,27.90
2019-05-18T12:59:23.520Z,27.00
2019-05-18T13:01:55.153Z,23.30
2019-05-18T13:04:27.114Z,22.60
2019-05-18T13:06:58.860Z,36.40
2019-05-18T13:09:30.790Z,33.40
2019-05-18T13:12:02.374Z,29.85
2019-05-18T13:14:34.212Z,28.12
2019-05-18T13:17:06.030Z,27.02
2019-05-18T13:19:38.099Z,30.12
2019-05-18T13:22:09.940Z,23.27
2019-05-18T13:24:45.095Z,23.98
2019-05-18T13:27:14.746Z,27.75
2019-05-18T13:29:46.682Z,23.05
2019-05-18T13:32:18.203Z,25.45
2019-05-18T13:34:50.111Z,27.73
2019-05-18T13:37:21.757Z,27.90
2019-05-18T13:39:53.690Z,24.92
2019-05-18T13:42:25.479Z,25.50
2019-05-18T13:44:57.293Z,22.45
2019-05-18T13:47:31.276Z,30.23
2019-05-18T13:50:03.042Z,30.12
2019-05-18T13:52:34.578Z,30.62
2019-05-18T13:55:08.864Z,21.73
2019-05-18T13:57:39.647Z,30.12
2019-05-18T14:00:11.581Z,31.57
2019-05-18T14:02:43.419Z,27.58
2019-05-18T14:05:15.362Z,30.37
2019-05-18T14:07:47.163Z,25.90
2019-05-18T14:10:18.766Z,27.27
2019-05-18T14:12:50.732Z,29.95
2019-05-18T14:15:23.117Z,28.80
2019-05-18T14:17:55.094Z,22.73
2019-05-18T14:20:26.746Z,29.18
2019-05-18T14:22:58.559Z,27.90
2019-05-18T14:25:30.534Z,29.75
2019-05-18T14:28:02.137Z,34.35
2019-05-18T14:30:33.976Z,26.17
2019-05-18T14:33:05.551Z,28.73
2019-05-18T14:35:37.172Z,33.28
2019-05-18T14:38:08.955Z,26.10
2019-05-18T14:40:40.693Z,28.67
2019-05-18T14:43:13.371Z,30.62
2019-05-18T14:45:44.980Z,29.87
2019-05-18T14:48:16.935Z,27.93
2019-05-18T14:50:48.541Z,28.85
2019-05-18T14:53:20.162Z,33.60
2019-05-18T14:55:52.003Z,33.13
2019-05-18T14:58:23.823Z,30.50
2019-05-18T15:00:55.471Z,32.05
2019-05-18T15:03:27.461Z,27.45
2019-05-18T15:05:59.023Z,26.50
2019-05-18T15:08:30.778Z,28.77
2019-05-18T15:11:02.532Z,24.57
2019-05-18T15:13:34.113Z,32.50
2019-05-18T15:16:05.554Z,38.63
2019-05-18T15:18:37.359Z,25.27
2019-05-18T15:21:09.167Z,32.10
2019-05-18T15:23:41.001Z,28.35
2019-05-18T15:26:12.596Z,34.67
2019-05-18T15:28:44.131Z,29.92
2019-05-18T15:31:16.128Z,33.67
2019-05-18T15:33:47.704Z,33.42
2019-05-18T15:36:19.076Z,27.05
2019-05-18T15:38:51.098Z,30.95
2019-05-18T15:41:22.854Z,31.42
2019-05-18T15:43:54.849Z,31.48
2019-05-18T15:46:26.224Z,26.68
2019-05-18T15:48:58.024Z,28.45
2019-05-18T15:51:30.146Z,33.35
2019-05-18T15:54:01.868Z,27.60
2019-05-18T15:56:33.375Z,33.35
2019-05-18T15:59:05.189Z,25.00
2019-05-18T16:01:36.951Z,27.30
2019-05-18T16:04:08.641Z,26.00
2019-05-18T16:06:40.588Z,33.88
2019-05-18T16:09:12.153Z,29.25
2019-05-18T16:11:43.462Z,31.90
2019-05-18T16:14:15.046Z,32.48
2019-05-18T16:16:46.526Z,29.18
2019-05-18T16:19:18.253Z,28.15
2019-05-18T16:21:50.043Z,26.80
2019-05-18T16:24:21.582Z,29.92
2019-05-18T16:26:53.566Z,24.10
2019-05-18T16:29:24.974Z,28.00
2019-05-18T16:31:56.466Z,27.52
2019-05-18T16:34:28.414Z,26.87
2019-05-18T16:37:00.853Z,23.75
2019-05-18T16:39:32.810Z,25.57
2019-05-18T16:42:04.440Z,29.67
2019-05-18T16:44:36.162Z,30.68
2019-05-18T16:47:07.585Z,30.60
2019-05-18T16:49:39.307Z,22.70
2019-05-18T16:52:11.282Z,26.07
2019-05-18T16:54:45.173Z,26.25
2019-05-18T16:57:17.049Z,22.00
2019-05-18T16:59:48.782Z,29.10
2019-05-18T17:02:31.158Z,35.73
2019-05-18T17:04:53.672Z,28.87
2019-05-18T17:07:25.566Z,28.23
2019-05-18T17:09:57.174Z,26.55
2019-05-18T17:12:28.806Z,24.00
2019-05-18T17:15:00.313Z,28.47
2019-05-18T17:17:35.220Z,31.62
2019-05-18T17:20:05.166Z,28.52
2019-05-18T17:22:36.932Z,23.20
2019-05-18T17:25:08.858Z,29.72
2019-05-18T17:27:40.697Z,30.40
2019-05-18T17:30:50.886Z,32.20
2019-05-18T17:33:22.878Z,33.25
2019-05-18T17:36:00.279Z,33.70
2019-05-18T17:38:28.110Z,31.55
2019-05-18T17:40:59.865Z,32.50
2019-05-18T17:43:31.945Z,33.75
2019-05-18T17:46:03.714Z,31.73
2019-05-18T17:48:35.789Z,36.55
2019-05-18T17:51:07.610Z,31.48
2019-05-18T17:53:39.418Z,34.85
2019-05-18T17:56:11.533Z,26.57
2019-05-18T17:58:43.554Z,27.27
2019-05-18T18:01:15.191Z,31.17
2019-05-18T18:03:47.147Z,31.57
2019-05-18T18:06:18.894Z,37.13
2019-05-18T18:08:50.738Z,26.68
2019-05-18T18:11:22.167Z,30.88
2019-05-18T18:13:53.714Z,34.10
2019-05-18T18:16:25.773Z,36.40
2019-05-18T18:18:57.481Z,26.17
2019-05-18T18:21:29.193Z,37.00
2019-05-18T18:24:00.757Z,31.62
2019-05-18T18:26:32.391Z,28.02
2019-05-18T18:29:04.383Z,34.25
2019-05-18T18:31:35.982Z,44.58
2019-05-18T18:34:07.677Z,30.70
2019-05-18T18:36:39.162Z,28.73
2019-05-18T18:39:11.093Z,40.15
2019-05-18T18:41:42.763Z,28.38
2019-05-18T18:44:14.240Z,35.90
2019-05-18T18:46:46.288Z,28.15
2019-05-18T18:49:17.756Z,36.73
2019-05-18T18:51:49.500Z,32.05
2019-05-18T18:54:21.362Z,33.13
2019-05-18T18:56:52.922Z,27.82
2019-05-18T18:59:25.116Z,26.68
2019-05-18T19:01:56.750Z,35.15
2019-05-18T19:04:28.507Z,31.45
2019-05-18T19:06:59.980Z,35.25
2019-05-18T19:09:31.708Z,33.42
2019-05-18T19:12:03.137Z,35.90
2019-05-18T19:14:34.763Z,28.55
2019-05-18T19:17:06.582Z,33.58
2019-05-18T19:19:40.086Z,36.35
2019-05-18T19:22:11.251Z,30.27
2019-05-18T19:24:42.896Z,38.48
2019-05-18T19:27:14.795Z,37.25
2019-05-18T19:29:46.645Z,32.55
2019-05-18T19:32:18.577Z,41.90
2019-05-18T19:34:50.240Z,33.13
2019-05-18T19:37:22.038Z,38.85
2019-05-18T19:39:53.570Z,35.05
2019-05-18T19:42:25.352Z,33.95
2019-05-18T19:44:57.781Z,40.50
2019-05-18T19:47:29.369Z,30.12
2019-05-18T19:50:01.478Z,33.90
2019-05-18T19:52:33.116Z,29.60
2019-05-18T19:55:04.887Z,33.55
2019-05-18T19:57:36.512Z,44.23
2019-05-18T20:00:11.054Z,34.78
2019-05-18T20:02:42.578Z,31.62
2019-05-18T20:05:14.278Z,32.90
2019-05-18T20:07:46.195Z,33.40
2019-05-18T20:10:17.901Z,34.63
2019-05-18T20:12:49.499Z,39.10
2019-05-18T20:15:21.330Z,45.03
2019-05-18T20:17:52.871Z,39.38
2019-05-18T20:20:24.703Z,36.25
2019-05-18T20:22:56.363Z,46.10
2019-05-18T20:25:28.196Z,29.02
2019-05-18T20:28:00.021Z,31.52
2019-05-18T20:30:31.914Z,28.57
2019-05-18T20:33:04.539Z,39.13
2019-05-18T20:35:36.309Z,35.75
2019-05-18T20:38:07.896Z,35.50
2019-05-18T20:40:39.555Z,33.78
2019-05-18T20:43:11.375Z,37.05
2019-05-18T20:45:43.063Z,34.10
2019-05-18T20:48:16.913Z,33.50
2019-05-18T20:50:47.905Z,39.08
2019-05-18T20:53:19.650Z,42.73
2019-05-18T20:55:51.135Z,40.28
2019-05-18T20:58:22.871Z,35.03
2019-05-18T21:00:54.923Z,30.97
2019-05-18T21:03:26.504Z,34.20
2019-05-18T21:05:58.310Z,33.25
2019-05-18T21:08:30.023Z,36.70
2019-05-18T21:11:01.730Z,37.13
2019-05-18T21:13:33.594Z,35.13
2019-05-18T21:16:05.189Z,36.45
2019-05-18T21:18:36.822Z,41.98
2019-05-18T21:21:08.448Z,44.05
2019-05-18T21:23:40.172Z,34.65
2019-05-18T21:26:12.024Z,33.78
2019-05-18T21:28:54.697Z,36.95
2019-05-18T21:31:16.698Z,28.60
2019-05-18T21:33:48.221Z,37.20
2019-05-18T21:36:19.822Z,38.33
2019-05-18T21:38:51.153Z,36.23
2019-05-18T21:41:23.109Z,36.00
2019-05-18T21:43:54.979Z,31.57
2019-05-18T21:46:26.875Z,39.58
2019-05-18T21:48:58.307Z,38.75
2019-05-18T21:51:29.772Z,38.42
2019-05-18T21:54:01.716Z,30.25
2019-05-18T21:56:33.313Z,35.68
2019-05-18T21:59:11.902Z,38.53
2019-05-18T22:01:38.052Z,40.20
2019-05-18T22:04:10.417Z,37.67
2019-05-18T22:06:42.269Z,26.87
2019-05-18T22:09:14.008Z,34.90
2019-05-18T22:11:45.826Z,32.05
2019-05-18T22:14:17.600Z,37.80
2019-05-18T22:16:49.012Z,32.73
2019-05-18T22:19:20.490Z,35.13
2019-05-18T22:21:52.355Z,35.98
2019-05-18T22:24:24.085Z,41.90
2019-05-18T22:26:55.955Z,36.95
2019-05-18T22:29:27.650Z,34.65
2019-05-18T22:31:59.534Z,32.28
2019-05-18T22:34:31.233Z,35.10
2019-05-18T22:37:03.148Z,31.70
2019-05-18T22:39:34.863Z,41.25
2019-05-18T22:42:06.703Z,43.50
2019-05-18T22:44:38.226Z,37.03
2019-05-18T22:47:09.865Z,41.65
2019-05-18T22:49:41.698Z,36.40
2019-05-18T22:52:13.365Z,34.92
2019-05-18T22:54:45.149Z,36.23
2019-05-18T22:57:16.903Z,30.10
2019-05-18T22:59:48.674Z,34.00
2019-05-18T23:02:20.747Z,40.78
2019-05-18T23:04:52.256Z,46.20
2019-05-18T23:07:26.394Z,41.58
2019-05-18T23:09:58.143Z,47.62
2019-05-18T23:12:30.324Z,43.78
2019-05-18T23:15:02.189Z,39.75
2019-05-18T23:17:33.894Z,40.28
2019-05-18T23:20:05.463Z,33.67
2019-05-18T23:22:37.479Z,38.23
2019-05-18T23:25:09.763Z,41.95
2019-05-18T23:27:42.095Z,32.20
2019-05-18T23:30:49.982Z,37.85
2019-05-18T23:33:21.919Z,40.35
2019-05-18T23:35:53.551Z,32.70
2019-05-18T23:38:25.432Z,37.48
2019-05-18T23:40:56.969Z,39.33
2019-05-18T23:43:28.432Z,44.18
2019-05-18T23:46:00.246Z,33.35
2019-05-18T23:48:31.945Z,34.00
2019-05-18T23:51:03.927Z,32.45
2019-05-18T23:53:35.744Z,32.70
2019-05-18T23:56:07.437Z,31.70
2019-05-18T23:58:39.311Z,32.50
